createdAt,value
2018-08-16T00:04:16.123Z,57.50
2018-08-16T00:09:20.008Z,57.80
2018-08-16T00:14:23.670Z,57.90
2018-08-16T00:19:27.375Z,57.80
2018-08-16T00:24:31.136Z,58.10
2018-08-16T00:29:35.057Z,58.20
2018-08-16T00:34:38.730Z,58.20
2018-08-16T00:39:42.442Z,58.50
2018-08-16T00:44:46.128Z,58.30
2018-08-16T00:49:50.360Z,58.60
2018-08-16T00:54:54.071Z,58.80
2018-08-16T00:59:57.783Z,58.50
2018-08-16T01:05:01.536Z,58.70
2018-08-16T01:10:07.088Z,59.10
2018-08-16T01:15:12.478Z,59.30
2018-08-16T01:20:16.303Z,59.20
2018-08-16T01:25:19.939Z,59.50
2018-08-16T01:30:24.153Z,59.40
2018-08-16T01:35:27.856Z,59.40
2018-08-16T01:40:31.558Z,60.10
2018-08-16T01:45:35.283Z,60.40
2018-08-16T01:50:38.972Z,60.30
2018-08-16T01:55:42.676Z,60.60
2018-08-16T02:00:47.121Z,60.70
2018-08-16T02:05:50.796Z,60.60
2018-08-16T02:10:54.568Z,60.70
2018-08-16T02:15:58.190Z,60.70
2018-08-16T02:21:01.885Z,61.00
2018-08-16T02:26:05.541Z,61.60
2018-08-16T02:31:09.187Z,61.50
2018-08-16T02:36:12.993Z,61.70
2018-08-16T02:41:16.689Z,61.60
2018-08-16T02:46:20.676Z,61.60
2018-08-16T02:51:24.341Z,62.00
2018-08-16T02:56:28.247Z,62.40
2018-08-16T03:01:31.908Z,62.10
2018-08-16T03:06:35.869Z,62.30
2018-08-16T03:11:39.665Z,62.70
2018-08-16T03:16:43.351Z,62.20
2018-08-16T03:21:47.052Z,62.60
2018-08-16T03:26:50.635Z,62.80
2018-08-16T03:31:54.682Z,62.60
2018-08-16T03:36:58.480Z,62.60
2018-08-16T03:42:02.432Z,62.70
2018-08-16T03:47:06.092Z,62.60
2018-08-16T03:52:09.714Z,62.80
2018-08-16T03:57:13.405Z,62.60
2018-08-16T04:02:17.126Z,62.50
2018-08-16T04:07:20.736Z,62.20
2018-08-16T04:12:24.330Z,62.80
2018-08-16T04:17:38.143Z,63.00
2018-08-16T04:22:41.803Z,63.30
2018-08-16T04:27:45.767Z,63.70
2018-08-16T04:32:50.543Z,63.60
2018-08-16T04:37:54.313Z,63.30
2018-08-16T04:42:57.939Z,63.60
2018-08-16T04:48:01.773Z,63.90
2018-08-16T04:53:05.519Z,63.60
2018-08-16T04:58:09.373Z,63.60
2018-08-16T05:03:13.056Z,63.70
2018-08-16T05:08:16.633Z,63.70
2018-08-16T05:13:20.203Z,63.90
2018-08-16T05:18:23.830Z,63.60
2018-08-16T05:23:27.451Z,64.30
2018-08-16T05:28:31.079Z,64.20
2018-08-16T05:33:34.790Z,63.80
2018-08-16T05:38:38.473Z,63.80
2018-08-16T05:43:42.247Z,63.30
2018-08-16T05:48:46.518Z,63.90
2018-08-16T05:53:50.152Z,64.00
2018-08-16T05:58:54.773Z,64.00
2018-08-16T06:03:58.407Z,64.10
2018-08-16T06:09:02.042Z,63.60
2018-08-16T06:14:08.092Z,63.80
2018-08-16T06:19:11.711Z,63.50
2018-08-16T06:24:15.431Z,62.50
2018-08-16T06:29:19.090Z,61.80
2018-08-16T06:34:24.247Z,62.30
2018-08-16T06:39:27.964Z,62.90
2018-08-16T06:44:31.711Z,63.40
2018-08-16T06:49:35.789Z,63.70
2018-08-16T06:54:39.488Z,63.80
2018-08-16T06:59:43.301Z,62.70
2018-08-16T07:04:46.939Z,61.70
2018-08-16T07:09:50.563Z,60.90
2018-08-16T07:14:54.227Z,59.70
2018-08-16T07:19:57.845Z,59.10
2018-08-16T07:25:01.456Z,58.50
2018-08-16T07:30:07.327Z,59.00
2018-08-16T07:35:11.368Z,58.70
2018-08-16T07:40:15.004Z,59.60
2018-08-16T07:45:18.676Z,59.30
2018-08-16T07:50:22.431Z,58.50
2018-08-16T07:55:26.216Z,59.30
2018-08-16T08:00:29.942Z,59.40
2018-08-16T08:05:33.584Z,59.30
2018-08-16T08:10:37.251Z,58.90
2018-08-16T08:15:40.890Z,58.30
2018-08-16T08:20:44.539Z,58.10
2018-08-16T08:25:48.192Z,57.90
2018-08-16T08:30:51.867Z,57.40
2018-08-16T08:36:07.079Z,56.90
2018-08-16T08:41:10.839Z,56.00
2018-08-16T08:46:15.786Z,55.50
2018-08-16T08:51:19.467Z,55.20
2018-08-16T08:56:34.189Z,53.70
2018-08-16T09:01:38.621Z,54.40
2018-08-16T09:06:42.361Z,54.30
2018-08-16T09:11:57.507Z,53.30
2018-08-16T09:17:01.171Z,53.50
2018-08-16T09:22:04.995Z,53.00
2018-08-16T09:27:08.648Z,51.50
2018-08-16T09:32:24.158Z,50.80
2018-08-16T09:37:33.087Z,50.80
2018-08-16T09:42:36.884Z,49.70
2018-08-16T09:47:51.853Z,48.30
2018-08-16T09:52:55.570Z,46.80
2018-08-16T09:57:59.413Z,46.70
2018-08-16T10:03:03.115Z,45.30
2018-08-16T10:08:06.848Z,45.60
2018-08-16T10:13:10.488Z,44.70
2018-08-16T10:18:14.111Z,41.30
2018-08-16T10:23:17.776Z,41.10
2018-08-16T10:28:21.359Z,40.70
2018-08-16T10:33:25.378Z,40.20
2018-08-16T10:38:29.649Z,37.40
2018-08-16T10:43:33.819Z,38.50
2018-08-16T10:48:37.594Z,37.10
2018-08-16T10:53:41.948Z,36.60
2018-08-16T10:58:45.744Z,37.40
2018-08-16T11:03:50.286Z,36.60
2018-08-16T11:08:55.173Z,36.50
2018-08-16T11:13:58.905Z,36.60
2018-08-16T11:19:02.662Z,36.90
2018-08-16T11:24:06.852Z,36.90
2018-08-16T11:29:10.487Z,37.10
2018-08-16T11:34:14.216Z,37.20
2018-08-16T11:39:17.935Z,37.00
2018-08-16T11:44:22.013Z,36.00
2018-08-16T11:49:26.051Z,34.10
2018-08-16T11:54:29.821Z,34.30
2018-08-16T11:59:33.914Z,33.80
2018-08-16T12:04:37.972Z,32.40
2018-08-16T12:09:41.783Z,33.60
2018-08-16T12:14:45.583Z,31.20
2018-08-16T12:19:49.222Z,30.30
2018-08-16T12:24:53.196Z,30.00
2018-08-16T12:29:56.823Z,29.00
2018-08-16T12:35:00.551Z,29.40
2018-08-16T12:40:05.331Z,30.50
2018-08-16T12:45:09.108Z,30.30
2018-08-16T12:50:12.949Z,30.00
2018-08-16T12:55:16.724Z,30.20
2018-08-16T13:00:21.264Z,30.40
2018-08-16T13:05:25.206Z,29.40
2018-08-16T13:10:29.042Z,29.50
2018-08-16T13:15:32.687Z,29.70
2018-08-16T13:20:36.332Z,28.90
2018-08-16T13:25:39.984Z,28.20
2018-08-16T13:30:43.626Z,29.00
2018-08-16T13:35:47.560Z,28.60
2018-08-16T13:40:51.283Z,29.00
2018-08-16T13:45:55.055Z,28.80
2018-08-16T13:50:58.842Z,28.90
2018-08-16T13:56:02.576Z,29.10
2018-08-16T14:01:06.310Z,29.10
2018-08-16T14:06:10.172Z,28.20
2018-08-16T14:11:13.996Z,27.70
2018-08-16T14:16:17.773Z,27.60
2018-08-16T14:21:21.380Z,27.90
2018-08-16T14:26:25.320Z,27.60
2018-08-16T14:31:29.131Z,27.90
2018-08-16T14:36:32.797Z,27.60
2018-08-16T14:41:36.454Z,27.50
2018-08-16T14:46:40.218Z,27.40
2018-08-16T14:51:44.121Z,27.40
2018-08-16T14:56:47.756Z,26.90
2018-08-16T15:01:51.610Z,26.80
2018-08-16T15:06:55.632Z,26.30
2018-08-16T15:11:59.467Z,26.40
2018-08-16T15:17:05.319Z,26.30
2018-08-16T15:22:09.086Z,25.80
2018-08-16T15:27:12.756Z,26.60
2018-08-16T15:32:16.760Z,25.60
2018-08-16T15:37:20.496Z,25.60
2018-08-16T15:42:24.332Z,25.90
2018-08-16T15:47:28.923Z,25.90
2018-08-16T15:52:34.490Z,26.30
2018-08-16T15:57:38.690Z,26.00
2018-08-16T16:02:43.437Z,26.50
2018-08-16T16:07:47.201Z,26.40
2018-08-16T16:12:52.377Z,27.00
2018-08-16T16:17:56.032Z,27.00
2018-08-16T16:23:00.255Z,27.30
2018-08-16T16:28:04.643Z,27.00
2018-08-16T16:33:10.433Z,27.00
2018-08-16T16:38:14.393Z,27.00
2018-08-16T16:43:18.164Z,27.00
2018-08-16T16:48:22.332Z,27.10
2018-08-16T16:53:26.208Z,27.60
2018-08-16T16:58:30.259Z,28.10
2018-08-16T17:03:34.077Z,27.40
2018-08-16T17:08:38.106Z,27.50
2018-08-16T17:13:43.087Z,27.50
2018-08-16T17:18:46.952Z,27.70
2018-08-16T17:23:50.702Z,28.10
2018-08-16T17:28:54.380Z,27.80
2018-08-16T17:33:59.112Z,28.20
2018-08-16T17:39:03.157Z,28.00
2018-08-16T17:44:07.367Z,27.90
2018-08-16T17:49:11.108Z,27.80
2018-08-16T17:54:16.209Z,28.20
2018-08-16T17:59:20.248Z,28.70
2018-08-16T18:04:24.128Z,29.00
2018-08-16T18:09:27.802Z,29.40
2018-08-16T18:14:31.769Z,29.90
2018-08-16T18:19:36.404Z,30.70
2018-08-16T18:24:40.268Z,31.40
2018-08-16T18:29:45.052Z,32.60
2018-08-16T18:34:52.575Z,33.40
2018-08-16T18:39:56.812Z,33.90
2018-08-16T18:45:00.639Z,34.40
2018-08-16T18:50:06.998Z,35.20
2018-08-16T18:55:12.553Z,35.90
2018-08-16T19:00:18.421Z,36.60
2018-08-16T19:05:22.174Z,36.50
2018-08-16T19:10:25.955Z,37.70
2018-08-16T19:15:29.643Z,37.70
2018-08-16T19:20:33.391Z,38.40
2018-08-16T19:25:37.520Z,39.20
2018-08-16T19:30:41.914Z,39.40
2018-08-16T19:35:45.939Z,39.60
2018-08-16T19:40:49.694Z,40.40
2018-08-16T19:45:56.341Z,41.30
2018-08-16T19:51:00.101Z,41.20
2018-08-16T19:56:03.984Z,41.80
2018-08-16T20:01:08.496Z,41.90
2018-08-16T20:06:13.081Z,42.70
2018-08-16T20:11:16.724Z,43.70
2018-08-16T20:16:20.496Z,43.20
2018-08-16T20:21:24.254Z,43.90
2018-08-16T20:26:28.025Z,44.10
2018-08-16T20:31:31.817Z,44.50
2018-08-16T20:36:36.171Z,45.00
2018-08-16T20:41:39.761Z,45.50
2018-08-16T20:46:43.514Z,45.60
2018-08-16T20:51:47.245Z,45.30
2018-08-16T20:56:50.977Z,45.70
2018-08-16T21:01:54.575Z,46.10
2018-08-16T21:06:58.378Z,46.40
2018-08-16T21:12:02.405Z,46.70
2018-08-16T21:17:06.704Z,46.70
2018-08-16T21:22:10.677Z,47.00
2018-08-16T21:27:14.268Z,47.10
2018-08-16T21:32:17.861Z,47.50
2018-08-16T21:37:21.532Z,47.50
2018-08-16T21:42:25.123Z,47.50
2018-08-16T21:47:29.036Z,47.70
2018-08-16T21:52:32.703Z,47.90
2018-08-16T21:57:36.798Z,49.00
2018-08-16T22:02:40.876Z,49.30
2018-08-16T22:08:17.247Z,49.60
2018-08-16T22:13:20.850Z,50.20
2018-08-16T22:18:24.429Z,50.60
2018-08-16T22:23:28.035Z,51.00
2018-08-16T22:28:32.491Z,52.20
2018-08-16T22:33:37.230Z,51.90
2018-08-16T22:38:41.639Z,52.20
2018-08-16T22:43:45.283Z,52.40
2018-08-16T22:48:48.949Z,52.90
2018-08-16T22:53:52.858Z,53.40
2018-08-16T22:58:56.499Z,54.70
2018-08-16T23:04:00.272Z,54.70
2018-08-16T23:09:05.820Z,54.60
2018-08-16T23:14:09.399Z,55.20
2018-08-16T23:19:12.976Z,55.70
2018-08-16T23:24:17.284Z,55.80
2018-08-16T23:29:21.833Z,56.10
2018-08-16T23:34:25.660Z,56.30
2018-08-16T23:39:29.471Z,56.70
2018-08-16T23:44:33.699Z,56.50
2018-08-16T23:49:37.263Z,57.00
2018-08-16T23:54:41.530Z,57.40
2018-08-16T23:59:45.184Z,57.20
